This is the latest recevied weather packets stored in our database for station/object AG1T-20. If no packets are shown the sender has not sent any weather packets the latest 10 day(s).
| Time | Temp. | Humidity | Pressure | Rain* | Wind** | Luminosity | Snow |
|---|---|---|---|---|---|---|---|
| 1787704205 | 32.22° C | 23% | 1022.6 hPa | 0 mm | - | 95 W/m² | - |
| 1787703604 | 33.89° C | 21% | 1022.6 hPa | 0 mm | - | 178 W/m² | - |
| 1787703005 | 31.67° C | 26% | 1022.6 hPa | 0 mm | - | 191 W/m² | - |
| 1787702404 | 31.67° C | 23% | 1022.6 hPa | 0 mm | - | 149 W/m² | - |
| 1787701804 | 30° C | 25% | 1022.8 hPa | 0 mm | - | 145 W/m² | - |
| 1787701205 | 30.56° C | 22% | 1022.8 hPa | 0 mm | - | 129 W/m² | - |
| 1787700605 | 31.67° C | 23% | 1022.8 hPa | 0 mm | - | 110 W/m² | - |
| 1787700004 | 33.33° C | 20% | 1022.8 hPa | 0 mm | - | 168 W/m² | - |
| 1787699405 | 33.33° C | 19% | 1022.8 hPa | 0 mm | - | 344 W/m² | - |
| 1787698804 | 32.78° C | 22% | 1022.8 hPa | 0 mm | - | 218 W/m² | - |
| 1787698204 | 33.33° C | 21% | 1023.2 hPa | 0 mm | - | 248 W/m² | - |
| 1787697604 | 32.78° C | 23% | 1023.2 hPa | 0 mm | - | 317 W/m² | - |
| 1787697004 | 32.22° C | 23% | 1023.2 hPa | 0 mm | - | 353 W/m² | - |
| 1787696404 | 32.78° C | 24% | 1023.2 hPa | 0 mm | - | 350 W/m² | - |
| 1787695805 | 32.78° C | 24% | 1023.2 hPa | 0 mm | - | 281 W/m² | - |
| 1787695204 | 32.78° C | 23% | 1023.2 hPa | 0 mm | - | 409 W/m² | - |
| 1787694604 | 32.78° C | 25% | 1023.9 hPa | 0 mm | - | 455 W/m² | - |
| 1787694005 | 31.67° C | 26% | 1023.9 hPa | 0 mm | - | 492 W/m² | - |
| 1787693405 | 32.22° C | 24% | 1023.9 hPa | 0 mm | - | 519 W/m² | - |
| 1787692804 | 32.22° C | 25% | 1023.9 hPa | 0 mm | - | 549 W/m² | - |
| 1787692205 | 32.22° C | 27% | 1023.9 hPa | 0 mm | - | 571 W/m² | - |
| 1787691604 | 31.67° C | 26% | 1023.9 hPa | 0 mm | - | 601 W/m² | - |
| 1787691005 | 31.11° C | 29% | 1024.8 hPa | 0 mm | - | 623 W/m² | - |
| 1787690404 | 32.22° C | 30% | 1024.8 hPa | 0 mm | - | 649 W/m² | - |
| 1787689805 | 31.11° C | 30% | 1024.8 hPa | 0 mm | - | 672 W/m² | - |
* Rain latest hour (hover to see other rain measurements)
** Current wind speed in m/s (hover to see current wind gust speed)